Time,TemperatureF,DewpointF,PressureIn,WindDirection,WindDirectionDegrees,WindSpeedMPH,WindSpeedGustMPH,Humidity,HourlyPrecipIn,Conditions,Clouds,dailyrainin,SoftwareType,DateUTC
2013-05-15 00:00:00,72.2,67.1,30.07,SE,126,1.0,1.0,84,0.00,,,0.00,WeatherCatV1.24B11,2013-05-15 05:00:00,
2013-05-15 00:01:00,72.2,67.1,30.07,SE,140,2.0,7.0,84,0.00,,,0.00,WeatherCatV1.15B25,2013-05-15 05:01:00,
2013-05-15 00:05:00,72.1,67.0,30.07,SE,136,1.0,4.0,84,0.00,,,0.00,WeatherCatV1.24B11,2013-05-15 05:05:00,
2013-05-15 00:06:00,72.2,67.1,30.07,South,175,4.0,4.0,84,0.00,,,0.00,WeatherCatV1.15B25,2013-05-15 05:06:00,
2013-05-15 00:10:00,72.1,67.0,30.07,SE,134,1.0,2.0,84,0.00,,,0.00,WeatherCatV1.24B11,2013-05-15 05:10:00,
2013-05-15 00:11:00,72.2,67.1,30.07,ESE,114,1.0,1.0,84,0.00,,,0.00,WeatherCatV1.15B25,2013-05-15 05:11:00,
2013-05-15 00:15:00,72.0,67.2,30.06,SE,125,1.0,4.0,85,0.00,,,0.00,WeatherCatV1.24B11,2013-05-15 05:15:00,
2013-05-15 00:16:00,72.2,67.1,30.07,SE,125,0.0,4.0,84,0.00,,,0.00,WeatherCatV1.15B25,2013-05-15 05:16:00,
2013-05-15 00:20:00,72.0,67.2,30.06,SE,128,1.0,5.0,85,0.00,,,0.00,WeatherCatV1.24B11,2013-05-15 05:20:00,
2013-05-15 00:21:00,72.1,67.0,30.07,SE,136,0.0,0.0,84,0.00,,,0.00,WeatherCatV1.15B25,2013-05-15 05:21:00,
2013-05-15 00:25:00,71.9,67.1,30.06,SSE,153,1.0,6.0,85,0.00,,,0.00,WeatherCatV1.24B11,2013-05-15 05:25:00,
2013-05-15 00:26:00,72.1,67.3,30.06,East,82,0.0,3.0,85,0.00,,,0.00,WeatherCatV1.15B25,2013-05-15 05:26:00,
2013-05-15 00:30:00,71.8,67.0,30.06,ESE,120,1.0,3.0,85,0.00,,,0.00,WeatherCatV1.24B11,2013-05-15 05:30:00,
2013-05-15 00:31:00,72.0,67.2,30.06,SE,125,0.0,2.0,85,0.00,,,0.00,WeatherCatV1.15B25,2013-05-15 05:31:00,
2013-05-15 00:35:00,71.8,67.0,30.06,ESE,116,1.0,7.0,85,0.00,,,0.00,WeatherCatV1.24B11,2013-05-15 05:35:00,
2013-05-15 00:36:00,72.0,67.2,30.06,SSE,155,0.0,3.0,85,0.00,,,0.00,WeatherCatV1.15B25,2013-05-15 05:36:00,
2013-05-15 00:40:00,71.7,66.9,30.05,SE,124,1.0,4.0,85,0.00,,,0.00,WeatherCatV1.24B11,2013-05-15 05:40:00,
2013-05-15 00:41:00,71.9,67.1,30.06,ESE,121,3.0,6.0,85,0.00,,,0.00,WeatherCatV1.15B25,2013-05-15 05:41:00,
2013-05-15 00:45:00,71.6,67.2,30.05,SE,140,1.0,0.0,86,0.00,,,0.00,WeatherCatV1.24B11,2013-05-15 05:45:00,
2013-05-15 00:46:00,71.8,67.0,30.06,ENE,70,8.0,8.0,85,0.00,,,0.00,WeatherCatV1.15B25,2013-05-15 05:46:00,
2013-05-15 00:50:00,71.5,67.1,30.05,SE,125,1.0,5.0,86,0.00,,,0.00,WeatherCatV1.24B11,2013-05-15 05:50:00,
2013-05-15 00:51:00,71.7,66.9,30.05,South,169,4.0,4.0,85,0.00,,,0.00,WeatherCatV1.15B25,2013-05-15 05:51:00,
2013-05-15 00:55:00,71.5,67.1,30.05,ESE,121,1.0,0.0,86,0.00,,,0.00,WeatherCatV1.24B11,2013-05-15 05:55:00,
2013-05-15 00:56:00,71.6,66.8,30.05,SE,138,0.0,1.0,85,0.00,,,0.00,WeatherCatV1.15B25,2013-05-15 05:56:00,
2013-05-15 01:00:00,71.6,67.2,30.05,ESE,113,0.0,8.0,86,0.00,,,0.00,WeatherCatV1.15B25,2013-05-15 06:00:00,
2013-05-15 01:05:00,71.5,67.1,30.05,SE,136,2.0,3.0,86,0.00,,,0.00,WeatherCatV1.15B25,2013-05-15 06:05:00,
2013-05-15 01:10:00,71.5,67.1,30.05,ESE,105,0.0,1.0,86,0.00,,,0.00,WeatherCatV1.15B25,2013-05-15 06:10:00,
2013-05-15 01:15:00,71.5,67.1,30.05,ESE,117,0.0,2.0,86,0.00,,,0.00,WeatherCatV1.15B25,2013-05-15 06:15:00,
2013-05-15 01:20:00,71.5,67.1,30.05,East,101,2.0,3.0,86,0.00,,,0.00,WeatherCatV1.15B25,2013-05-15 06:20:00,
2013-05-15 01:25:00,71.4,67.0,30.05,East,101,2.0,2.0,86,0.00,,,0.00,WeatherCatV1.15B25,2013-05-15 06:25:00,
2013-05-15 01:30:00,71.3,66.9,30.05,East,96,0.0,3.0,86,0.00,,,0.00,WeatherCatV1.15B25,2013-05-15 06:30:00,
2013-05-15 01:35:00,71.3,66.9,30.05,ESE,102,0.0,2.0,86,0.00,,,0.00,WeatherCatV1.15B25,2013-05-15 06:35:00,
2013-05-15 01:40:00,71.3,66.9,30.04,ESE,102,0.0,0.0,86,0.00,,,0.00,WeatherCatV1.15B25,2013-05-15 06:40:00,
2013-05-15 01:45:00,71.3,66.9,30.04,ESE,102,0.0,0.0,86,0.00,,,0.00,WeatherCatV1.15B25,2013-05-15 06:45:00,
2013-05-15 01:50:00,71.3,66.9,30.04,ESE,103,0.0,3.0,86,0.00,,,0.00,WeatherCatV1.15B25,2013-05-15 06:50:00,
2013-05-15 01:55:00,71.2,67.1,30.04,ESE,105,0.0,0.0,87,0.00,,,0.00,WeatherCatV1.15B25,2013-05-15 06:55:00,
2013-05-15 02:00:00,71.0,66.9,30.04,East,92,0.0,1.0,87,0.00,,,0.00,WeatherCatV1.24B11,2013-05-15 07:00:00,
2013-05-15 02:01:00,71.1,67.0,30.04,ESE,103,0.0,2.0,87,0.00,,,0.00,WeatherCatV1.15B25,2013-05-15 07:01:00,
2013-05-15 02:05:00,71.0,66.9,30.04,East,91,0.0,1.0,87,0.00,,,0.00,WeatherCatV1.24B11,2013-05-15 07:05:00,
2013-05-15 02:06:00,71.0,66.9,30.04,ESE,103,0.0,1.0,87,0.00,,,0.00,WeatherCatV1.15B25,2013-05-15 07:06:00,
2013-05-15 02:10:00,71.0,66.9,30.04,East,90,0.0,0.0,87,0.00,,,0.00,WeatherCatV1.24B11,2013-05-15 07:10:00,
2013-05-15 02:11:00,71.0,66.9,30.04,East,90,0.0,2.0,87,0.00,,,0.00,WeatherCatV1.15B25,2013-05-15 07:11:00,
2013-05-15 02:15:00,71.0,66.9,30.04,East,90,0.0,1.0,87,0.00,,,0.00,WeatherCatV1.24B11,2013-05-15 07:15:00,
2013-05-15 02:16:00,71.0,66.9,30.04,East,90,0.0,1.0,87,0.00,,,0.00,WeatherCatV1.15B25,2013-05-15 07:16:00,
2013-05-15 02:20:00,71.0,66.9,30.04,East,90,0.0,0.0,87,0.00,,,0.00,WeatherCatV1.24B11,2013-05-15 07:20:00,
2013-05-15 02:21:00,71.0,66.9,30.04,East,90,0.0,1.0,87,0.00,,,0.00,WeatherCatV1.15B25,2013-05-15 07:21:00,
2013-05-15 02:25:00,71.0,66.9,30.04,East,90,0.0,0.0,87,0.00,,,0.00,WeatherCatV1.24B11,2013-05-15 07:25:00,
2013-05-15 02:26:00,71.0,66.9,30.04,East,90,0.0,0.0,87,0.00,,,0.00,WeatherCatV1.15B25,2013-05-15 07:26:00,
2013-05-15 02:30:00,71.0,66.9,30.04,East,90,0.0,0.0,87,0.00,,,0.00,WeatherCatV1.15B25,2013-05-15 07:30:00,
2013-05-15 02:35:00,71.0,66.9,30.04,East,90,0.0,0.0,87,0.00,,,0.00,WeatherCatV1.15B25,2013-05-15 07:35:00,
2013-05-15 02:40:00,71.1,67.0,30.04,East,90,0.0,0.0,87,0.00,,,0.00,WeatherCatV1.24B11,2013-05-15 07:40:00,
2013-05-15 02:41:00,71.0,66.9,30.04,East,90,0.0,0.0,87,0.00,,,0.00,WeatherCatV1.15B25,2013-05-15 07:41:00,
2013-05-15 02:45:00,71.1,67.0,30.04,East,90,0.0,2.0,87,0.00,,,0.00,WeatherCatV1.15B25,2013-05-15 07:45:00,
2013-05-15 02:50:00,71.1,67.0,30.04,East,90,0.0,1.0,87,0.00,,,0.00,WeatherCatV1.15B25,2013-05-15 07:50:00,
2013-05-15 02:55:00,71.1,67.0,30.04,East,90,0.0,0.0,87,0.00,,,0.00,WeatherCatV1.15B25,2013-05-15 07:55:00,
2013-05-15 03:00:00,71.1,67.0,30.04,East,90,0.0,1.0,87,0.00,,,0.00,WeatherCatV1.15B25,2013-05-15 08:00:00,
2013-05-15 03:05:00,71.1,67.0,30.04,East,90,0.0,0.0,87,0.00,,,0.00,WeatherCatV1.15B25,2013-05-15 08:05:00,
2013-05-15 03:10:00,71.1,67.0,30.04,East,90,1.0,1.0,87,0.00,,,0.00,WeatherCatV1.15B25,2013-05-15 08:10:00,
2013-05-15 03:15:00,71.1,67.4,30.04,East,90,0.0,0.0,88,0.00,,,0.00,WeatherCatV1.15B25,2013-05-15 08:15:00,
2013-05-15 03:20:00,71.1,67.4,30.04,East,90,0.0,0.0,88,0.00,,,0.00,WeatherCatV1.15B25,2013-05-15 08:20:00,
2013-05-15 03:25:00,71.1,67.4,30.04,East,90,0.0,0.0,88,0.00,,,0.00,WeatherCatV1.15B25,2013-05-15 08:25:00,
2013-05-15 03:30:00,71.1,67.4,30.04,East,90,2.0,2.0,88,0.00,,,0.00,WeatherCatV1.15B25,2013-05-15 08:30:00,
2013-05-15 03:35:00,71.1,67.4,30.03,East,90,0.0,1.0,88,0.00,,,0.00,WeatherCatV1.15B25,2013-05-15 08:35:00,
2013-05-15 03:40:00,71.1,67.4,30.03,East,90,0.0,1.0,88,0.00,,,0.00,WeatherCatV1.15B25,2013-05-15 08:40:00,
2013-05-15 03:45:00,71.1,67.4,30.03,East,90,0.0,1.0,88,0.00,,,0.00,WeatherCatV1.15B25,2013-05-15 08:45:00,
2013-05-15 03:50:00,71.0,67.3,30.03,East,90,0.0,0.0,88,0.00,,,0.00,WeatherCatV1.15B25,2013-05-15 08:50:00,
2013-05-15 03:55:00,71.0,67.3,30.03,East,90,0.0,0.0,88,0.00,,,0.00,WeatherCatV1.15B25,2013-05-15 08:55:00,
2013-05-15 04:00:00,70.9,67.2,30.03,East,90,0.0,0.0,88,0.00,,,0.00,WeatherCatV1.15B25,2013-05-15 09:00:00,
2013-05-15 04:05:00,70.8,67.1,30.02,ENE,78,0.0,2.0,88,0.00,,,0.00,WeatherCatV1.15B25,2013-05-15 09:05:00,
2013-05-15 04:10:00,70.8,67.1,30.03,East,79,0.0,2.0,88,0.00,,,0.00,WeatherCatV1.15B25,2013-05-15 09:10:00,
2013-05-15 04:15:00,70.7,67.0,30.03,East,80,1.0,1.0,88,0.00,,,0.00,WeatherCatV1.15B25,2013-05-15 09:15:00,
2013-05-15 04:20:00,70.7,67.3,30.02,East,80,2.0,5.0,89,0.00,,,0.00,WeatherCatV1.15B25,2013-05-15 09:20:00,
2013-05-15 04:25:00,70.7,67.3,30.02,East,81,0.0,3.0,89,0.00,,,0.00,WeatherCatV1.15B25,2013-05-15 09:25:00,
2013-05-15 04:30:00,70.6,67.2,30.01,East,81,0.0,1.0,89,0.00,,,0.00,WeatherCatV1.15B25,2013-05-15 09:30:00,
2013-05-15 04:35:00,70.6,67.2,30.02,East,101,0.0,5.0,89,0.00,,,0.00,WeatherCatV1.15B25,2013-05-15 09:35:00,
2013-05-15 04:40:00,70.6,67.2,30.01,East,97,3.0,6.0,89,0.00,,,0.00,WeatherCatV1.15B25,2013-05-15 09:40:00,
2013-05-15 04:45:00,70.6,67.2,30.01,East,93,0.0,0.0,89,0.00,,,0.00,WeatherCatV1.15B25,2013-05-15 09:45:00,
2013-05-15 04:50:00,70.6,67.2,30.02,East,93,0.0,1.0,89,0.00,,,0.00,WeatherCatV1.15B25,2013-05-15 09:50:00,
2013-05-15 04:55:00,70.6,67.2,30.02,East,98,3.0,3.0,89,0.00,,,0.00,WeatherCatV1.15B25,2013-05-15 09:55:00,
2013-05-15 05:00:00,70.7,67.3,30.01,East,99,0.0,1.0,89,0.00,,,0.00,WeatherCatV1.15B25,2013-05-15 10:00:00,
2013-05-15 05:05:00,70.7,67.3,30.01,East,94,0.0,1.0,89,0.00,,,0.00,WeatherCatV1.15B25,2013-05-15 10:05:00,
2013-05-15 05:10:00,70.7,67.3,30.01,East,98,0.0,0.0,89,0.00,,,0.00,WeatherCatV1.15B25,2013-05-15 10:10:00,
2013-05-15 05:15:00,70.6,67.2,30.01,East,100,0.0,0.0,89,0.00,,,0.00,WeatherCatV1.15B25,2013-05-15 10:15:00,
2013-05-15 05:20:00,70.6,67.2,30.01,East,101,0.0,1.0,89,0.00,,,0.00,WeatherCatV1.15B25,2013-05-15 10:20:00,
2013-05-15 05:25:00,70.6,67.2,30.00,East,99,2.0,3.0,89,0.00,,,0.00,WeatherCatV1.15B25,2013-05-15 10:25:00,
2013-05-15 05:30:00,70.5,67.1,30.00,East,99,0.0,1.0,89,0.00,,,0.00,WeatherCatV1.15B25,2013-05-15 10:30:00,
2013-05-15 05:35:00,70.5,67.1,30.00,East,101,1.0,3.0,89,0.00,,,0.00,WeatherCatV1.15B25,2013-05-15 10:35:00,
2013-05-15 05:40:00,70.4,67.3,30.00,East,84,0.0,0.0,90,0.00,,,0.00,WeatherCatV1.15B25,2013-05-15 10:40:00,
2013-05-15 05:45:00,70.4,67.3,30.00,East,90,0.0,1.0,90,0.00,,,0.00,WeatherCatV1.15B25,2013-05-15 10:45:00,
2013-05-15 05:50:00,70.4,67.3,30.00,East,98,0.0,7.0,90,0.00,,,0.00,WeatherCatV1.15B25,2013-05-15 10:50:00,
2013-05-15 05:55:00,70.3,67.2,30.00,East,87,0.0,1.0,90,0.00,,,0.00,WeatherCatV1.15B25,2013-05-15 10:55:00,
2013-05-15 06:00:00,70.3,67.2,30.00,East,84,0.0,0.0,90,0.00,,,0.00,WeatherCatV1.15B25,2013-05-15 11:00:00,
2013-05-15 06:05:00,70.3,67.2,29.99,ESE,116,2.0,4.0,90,0.00,,,0.00,WeatherCatV1.15B25,2013-05-15 11:05:00,
2013-05-15 06:10:00,70.3,67.2,29.99,East,93,1.0,6.0,90,0.00,,,0.00,WeatherCatV1.15B25,2013-05-15 11:10:00,
2013-05-15 06:15:00,70.3,67.2,30.00,East,89,0.0,5.0,90,0.00,,,0.00,WeatherCatV1.15B25,2013-05-15 11:15:00,
2013-05-15 06:20:00,70.3,67.2,29.99,East,87,0.0,6.0,90,0.00,,,0.00,WeatherCatV1.15B25,2013-05-15 11:20:00,
2013-05-15 06:25:00,70.3,67.2,29.99,East,96,0.0,5.0,90,0.00,,,0.00,WeatherCatV1.15B25,2013-05-15 11:25:00,
2013-05-15 06:30:00,70.3,67.2,29.99,East,84,3.0,7.0,90,0.00,,,0.00,WeatherCatV1.15B25,2013-05-15 11:30:00,
2013-05-15 06:35:00,70.2,67.1,29.99,ESE,103,0.0,1.0,90,0.00,,,0.00,WeatherCatV1.15B25,2013-05-15 11:35:00,
2013-05-15 06:40:00,70.3,67.2,29.99,SE,136,0.0,6.0,90,0.00,,,0.00,WeatherCatV1.15B25,2013-05-15 11:40:00,
2013-05-15 06:45:00,70.3,67.2,29.99,ESE,114,0.0,1.0,90,0.00,,,0.00,WeatherCatV1.15B25,2013-05-15 11:45:00,
2013-05-15 06:50:00,70.3,67.2,29.99,ESE,112,0.0,3.0,90,0.00,,,0.00,WeatherCatV1.15B25,2013-05-15 11:50:00,
2013-05-15 06:55:00,70.3,67.2,29.99,ESE,110,0.0,3.0,90,0.00,,,0.00,WeatherCatV1.15B25,2013-05-15 11:55:00,
2013-05-15 07:00:00,70.3,67.2,29.99,ESE,111,0.0,2.0,90,0.00,,,0.00,WeatherCatV1.15B25,2013-05-15 12:00:00,
2013-05-15 07:05:00,70.4,67.3,29.99,ESE,105,0.0,4.0,90,0.00,,,0.00,WeatherCatV1.15B25,2013-05-15 12:05:00,
2013-05-15 07:10:00,70.4,67.3,29.99,East,80,0.0,0.0,90,0.00,,,0.00,WeatherCatV1.15B25,2013-05-15 12:10:00,
2013-05-15 07:15:00,70.4,67.3,29.99,East,80,0.0,0.0,90,0.00,,,0.00,WeatherCatV1.15B25,2013-05-15 12:15:00,
2013-05-15 07:20:00,70.4,67.3,29.99,East,87,5.0,6.0,90,0.00,,,0.00,WeatherCatV1.15B25,2013-05-15 12:20:00,
2013-05-15 07:25:00,70.4,67.3,30.00,ESE,106,0.0,5.0,90,0.00,,,0.00,WeatherCatV1.15B25,2013-05-15 12:25:00,
2013-05-15 07:30:00,70.4,67.6,29.99,ENE,59,0.0,5.0,91,0.00,,,0.00,WeatherCatV1.15B25,2013-05-15 12:30:00,
2013-05-15 07:35:00,70.4,67.3,30.00,East,92,0.0,1.0,90,0.00,,,0.00,WeatherCatV1.15B25,2013-05-15 12:35:00,
2013-05-15 07:40:00,70.5,67.4,30.00,East,96,0.0,3.0,90,0.00,,,0.00,WeatherCatV1.15B25,2013-05-15 12:40:00,
2013-05-15 07:45:00,70.5,67.7,30.00,East,94,1.0,6.0,91,0.00,,,0.00,WeatherCatV1.15B25,2013-05-15 12:45:00,
2013-05-15 07:50:00,70.5,67.4,30.00,East,94,0.0,5.0,90,0.00,,,0.00,WeatherCatV1.15B25,2013-05-15 12:50:00,
2013-05-15 07:55:00,70.5,67.7,30.01,East,97,0.0,0.0,91,0.00,,,0.00,WeatherCatV1.15B25,2013-05-15 12:55:00,
2013-05-15 08:00:00,70.6,67.8,30.01,SE,129,0.0,3.0,91,0.00,,,0.00,WeatherCatV1.15B25,2013-05-15 13:00:00,
2013-05-15 08:05:00,70.6,67.8,30.01,East,92,1.0,2.0,91,0.00,,,0.00,WeatherCatV1.15B25,2013-05-15 13:05:00,
2013-05-15 08:10:00,70.6,67.8,30.01,ESE,121,0.0,2.0,91,0.00,,,0.00,WeatherCatV1.15B25,2013-05-15 13:10:00,
2013-05-15 08:15:00,70.6,67.8,30.01,ESE,107,2.0,3.0,91,0.00,,,0.00,WeatherCatV1.15B25,2013-05-15 13:15:00,
2013-05-15 08:20:00,70.6,67.8,30.01,ESE,122,0.0,1.0,91,0.00,,,0.00,WeatherCatV1.15B25,2013-05-15 13:20:00,
2013-05-15 08:25:00,70.7,67.9,30.01,ESE,121,0.0,0.0,91,0.00,,,0.00,WeatherCatV1.15B25,2013-05-15 13:25:00,
2013-05-15 08:30:00,70.7,67.9,30.01,ESE,106,0.0,4.0,91,0.00,,,0.00,WeatherCatV1.15B25,2013-05-15 13:30:00,
2013-05-15 08:35:00,70.8,68.0,30.01,ESE,109,0.0,2.0,91,0.00,,,0.00,WeatherCatV1.15B25,2013-05-15 13:35:00,
2013-05-15 08:40:00,70.8,68.0,30.01,ESE,109,2.0,7.0,91,0.00,,,0.00,WeatherCatV1.15B25,2013-05-15 13:40:00,
2013-05-15 08:45:00,70.8,68.0,30.01,SSE,148,1.0,3.0,91,0.00,,,0.00,WeatherCatV1.15B25,2013-05-15 13:45:00,
2013-05-15 08:50:00,70.9,68.1,30.02,ESE,106,0.0,0.0,91,0.00,,,0.00,WeatherCatV1.15B25,2013-05-15 13:50:00,
2013-05-15 08:55:00,70.9,68.1,30.02,ESE,114,0.0,1.0,91,0.00,,,0.00,WeatherCatV1.15B25,2013-05-15 13:55:00,
2013-05-15 08:56:00,70.9,68.1,30.02,ESE,114,0.0,1.0,91,0.00,,,0.00,WeatherCatV1.15B25,2013-05-15 13:56:00,
2013-05-15 09:00:00,71.2,68.4,30.01,ESE,110,1.0,3.0,91,0.70,,,0.00,WeatherCatV1.24B11,2013-05-15 14:00:00,
2013-05-15 09:01:00,71.0,68.2,30.01,SE,127,0.0,2.0,91,0.00,,,0.00,WeatherCatV1.15B25,2013-05-15 14:01:00,
2013-05-15 09:05:00,71.1,68.3,30.01,ESE,116,1.0,5.0,91,0.63,,,0.00,WeatherCatV1.24B11,2013-05-15 14:05:00,
2013-05-15 09:06:00,71.1,68.3,30.01,ESE,117,0.0,4.0,91,0.00,,,0.01,WeatherCatV1.15B25,2013-05-15 14:06:00,
2013-05-15 09:10:00,71.0,68.2,30.02,East,82,0.0,0.0,91,0.23,,,0.00,WeatherCatV1.24B11,2013-05-15 14:10:00,
2013-05-15 09:11:00,71.2,68.4,30.01,ESE,104,0.0,3.0,91,0.09,,,0.01,WeatherCatV1.15B25,2013-05-15 14:11:00,
2013-05-15 09:15:00,71.0,68.2,30.01,East,96,1.0,4.0,91,0.96,,,0.00,WeatherCatV1.24B11,2013-05-15 14:15:00,
2013-05-15 09:16:00,71.2,68.4,30.01,SE,128,0.0,4.0,91,0.63,,,0.05,WeatherCatV1.15B25,2013-05-15 14:16:00,
2013-05-15 09:20:00,71.0,68.2,30.01,ESE,102,1.0,4.0,91,0.58,,,0.00,WeatherCatV1.24B11,2013-05-15 14:20:00,
2013-05-15 09:21:00,71.1,68.3,30.02,ENE,68,0.0,1.0,91,0.27,,,0.08,WeatherCatV1.15B25,2013-05-15 14:21:00,
2013-05-15 09:25:00,71.0,68.2,30.01,ESE,109,1.0,5.0,91,0.13,,,0.00,WeatherCatV1.24B11,2013-05-15 14:25:00,
2013-05-15 09:26:00,71.0,68.2,30.01,East,86,0.0,5.0,91,1.41,,,0.20,WeatherCatV1.15B25,2013-05-15 14:26:00,
2013-05-15 09:30:00,71.3,68.8,30.01,ESE,115,1.0,5.0,92,0.06,,,0.00,WeatherCatV1.24B11,2013-05-15 14:30:00,
2013-05-15 09:31:00,71.0,68.2,30.01,ESE,105,0.0,2.0,91,0.37,,,0.23,WeatherCatV1.15B25,2013-05-15 14:31:00,
2013-05-15 09:35:00,71.5,69.0,30.00,ESE,122,1.0,4.0,92,0.04,,,0.00,WeatherCatV1.24B11,2013-05-15 14:35:00,
2013-05-15 09:36:00,71.0,68.2,30.01,SE,139,2.0,6.0,91,0.20,,,0.25,WeatherCatV1.15B25,2013-05-15 14:36:00,
2013-05-15 09:40:00,71.8,69.3,30.00,ESE,122,1.0,7.0,92,0.00,,,0.00,WeatherCatV1.24B11,2013-05-15 14:40:00,
2013-05-15 09:41:00,71.1,68.3,30.01,SE,130,3.0,6.0,91,0.08,,,0.25,WeatherCatV1.15B25,2013-05-15 14:41:00,
2013-05-15 09:45:00,71.9,69.4,30.00,ESE,121,1.0,8.0,92,0.00,,,0.00,WeatherCatV1.24B11,2013-05-15 14:45:00,
2013-05-15 09:46:00,71.3,68.8,30.01,ESE,123,0.0,7.0,92,0.05,,,0.25,WeatherCatV1.15B25,2013-05-15 14:46:00,
2013-05-15 09:50:00,72.3,69.8,30.00,SE,127,2.0,6.0,92,0.00,,,0.00,WeatherCatV1.24B11,2013-05-15 14:50:00,
2013-05-15 09:51:00,71.7,69.2,30.00,ENE,65,0.0,5.0,92,0.00,,,0.25,WeatherCatV1.15B25,2013-05-15 14:51:00,
2013-05-15 09:55:00,72.8,70.3,30.00,SE,127,2.0,4.0,92,0.00,,,0.00,WeatherCatV1.24B11,2013-05-15 14:55:00,
2013-05-15 09:56:00,71.9,69.4,30.00,ESE,113,2.0,4.0,92,0.00,,,0.25,WeatherCatV1.15B25,2013-05-15 14:56:00,
2013-05-15 10:00:00,72.8,70.3,30.00,SE,134,2.0,2.0,92,0.00,,,0.00,WeatherCatV1.24B11,2013-05-15 15:00:00,
2013-05-15 10:01:00,72.1,69.6,30.00,SE,131,0.0,10.0,92,0.00,,,0.25,WeatherCatV1.15B25,2013-05-15 15:01:00,
2013-05-15 10:05:00,72.8,70.3,30.00,SE,132,1.0,1.0,92,0.00,,,0.00,WeatherCatV1.24B11,2013-05-15 15:05:00,
2013-05-15 10:06:00,72.7,70.2,30.00,ESE,111,0.0,6.0,92,0.00,,,0.25,WeatherCatV1.15B25,2013-05-15 15:06:00,
2013-05-15 10:10:00,72.4,69.9,30.00,SE,126,2.0,3.0,92,0.00,,,0.00,WeatherCatV1.24B11,2013-05-15 15:10:00,
2013-05-15 10:11:00,72.8,70.3,30.00,SE,130,0.0,6.0,92,0.00,,,0.25,WeatherCatV1.15B25,2013-05-15 15:11:00,
2013-05-15 10:15:00,72.5,70.0,29.99,ESE,121,1.0,3.0,92,0.00,,,0.00,WeatherCatV1.24B11,2013-05-15 15:15:00,
2013-05-15 10:16:00,72.8,70.3,30.00,ESE,121,0.0,7.0,92,0.00,,,0.25,WeatherCatV1.15B25,2013-05-15 15:16:00,
2013-05-15 10:20:00,72.7,70.2,29.99,SE,126,0.0,4.0,92,0.00,,,0.00,WeatherCatV1.24B11,2013-05-15 15:20:00,
2013-05-15 10:21:00,72.4,69.9,30.00,SE,130,1.0,6.0,92,0.00,,,0.25,WeatherCatV1.15B25,2013-05-15 15:21:00,
2013-05-15 10:25:00,72.6,70.1,29.99,SE,135,1.0,0.0,92,0.00,,,0.00,WeatherCatV1.24B11,2013-05-15 15:25:00,
2013-05-15 10:26:00,72.5,70.0,29.99,ESE,117,0.0,1.0,92,0.00,,,0.25,WeatherCatV1.15B25,2013-05-15 15:26:00,
2013-05-15 10:30:00,72.8,70.3,29.99,ESE,112,1.0,0.0,92,0.00,,,0.00,WeatherCatV1.24B11,2013-05-15 15:30:00,
2013-05-15 10:31:00,72.7,70.2,29.99,SE,128,1.0,1.0,92,0.00,,,0.25,WeatherCatV1.15B25,2013-05-15 15:31:00,
2013-05-15 10:35:00,73.2,70.7,29.99,ESE,123,1.0,1.0,92,0.00,,,0.00,WeatherCatV1.24B11,2013-05-15 15:35:00,
2013-05-15 10:36:00,72.6,70.1,29.99,SE,132,0.0,5.0,92,0.00,,,0.25,WeatherCatV1.15B25,2013-05-15 15:36:00,
2013-05-15 10:40:00,73.6,71.1,29.99,SE,129,1.0,5.0,92,0.00,,,0.00,WeatherCatV1.24B11,2013-05-15 15:40:00,
2013-05-15 10:41:00,72.7,70.2,29.99,East,98,0.0,1.0,92,0.00,,,0.25,WeatherCatV1.15B25,2013-05-15 15:41:00,
2013-05-15 10:45:00,74.1,71.6,29.99,SE,131,1.0,1.0,92,0.00,,,0.00,WeatherCatV1.24B11,2013-05-15 15:45:00,
2013-05-15 10:46:00,73.0,70.5,29.99,ESE,123,0.0,2.0,92,0.00,,,0.25,WeatherCatV1.15B25,2013-05-15 15:46:00,
2013-05-15 10:50:00,74.0,71.5,29.99,SE,125,1.0,5.0,92,0.00,,,0.00,WeatherCatV1.24B11,2013-05-15 15:50:00,
2013-05-15 10:51:00,73.5,71.0,29.99,SE,125,1.0,8.0,92,0.00,,,0.25,WeatherCatV1.15B25,2013-05-15 15:51:00,
2013-05-15 10:55:00,73.9,71.4,29.99,SE,124,1.0,0.0,92,0.00,,,0.00,WeatherCatV1.24B11,2013-05-15 15:55:00,
2013-05-15 10:56:00,73.9,71.4,29.99,SE,136,0.0,7.0,92,0.00,,,0.25,WeatherCatV1.15B25,2013-05-15 15:56:00,
2013-05-15 11:00:00,73.6,71.1,29.99,ESE,123,1.0,1.0,92,0.00,,,0.00,WeatherCatV1.24B11,2013-05-15 16:00:00,
2013-05-15 11:01:00,74.0,71.5,29.99,SE,144,6.0,6.0,92,0.00,,,0.25,WeatherCatV1.15B25,2013-05-15 16:01:00,
2013-05-15 11:05:00,73.9,71.1,29.98,SE,133,1.0,6.0,91,0.00,,,0.00,WeatherCatV1.24B11,2013-05-15 16:05:00,
2013-05-15 11:06:00,73.9,71.4,29.99,SE,141,0.0,5.0,92,0.00,,,0.25,WeatherCatV1.15B25,2013-05-15 16:06:00,
2013-05-15 11:10:00,74.0,71.2,29.98,SSE,153,1.0,0.0,91,0.00,,,0.00,WeatherCatV1.24B11,2013-05-15 16:10:00,
2013-05-15 11:11:00,73.8,71.3,29.99,East,80,0.0,3.0,92,0.00,,,0.25,WeatherCatV1.15B25,2013-05-15 16:11:00,
2013-05-15 11:15:00,74.1,71.3,29.98,South,171,1.0,7.0,91,0.00,,,0.00,WeatherCatV1.24B11,2013-05-15 16:15:00,
2013-05-15 11:16:00,73.8,71.0,29.99,SE,130,0.0,0.0,91,0.00,,,0.25,WeatherCatV1.15B25,2013-05-15 16:16:00,
2013-05-15 11:20:00,74.6,71.5,29.97,SSE,151,2.0,9.0,90,0.00,,,0.00,WeatherCatV1.24B11,2013-05-15 16:20:00,
2013-05-15 11:21:00,74.0,71.2,29.98,SSW,197,0.0,4.0,91,0.00,,,0.25,WeatherCatV1.15B25,2013-05-15 16:21:00,
2013-05-15 11:25:00,74.9,71.8,29.98,SE,139,2.0,7.0,90,0.00,,,0.00,WeatherCatV1.24B11,2013-05-15 16:25:00,
2013-05-15 11:26:00,74.0,71.2,29.98,South,184,4.0,7.0,91,0.00,,,0.25,WeatherCatV1.15B25,2013-05-15 16:26:00,
2013-05-15 11:30:00,75.1,71.6,29.97,SE,142,2.0,8.0,89,0.00,,,0.00,WeatherCatV1.24B11,2013-05-15 16:30:00,
2013-05-15 11:31:00,74.3,71.5,29.98,South,176,0.0,5.0,91,0.00,,,0.25,WeatherCatV1.15B25,2013-05-15 16:31:00,
2013-05-15 11:35:00,75.9,72.1,29.96,SE,142,3.0,12.0,88,0.00,,,0.00,WeatherCatV1.24B11,2013-05-15 16:35:00,
2013-05-15 11:36:00,74.9,71.8,29.97,SSE,166,4.0,5.0,90,0.00,,,0.25,WeatherCatV1.15B25,2013-05-15 16:36:00,
2013-05-15 11:40:00,76.6,71.7,29.95,SE,134,3.0,8.0,85,0.00,,,0.00,WeatherCatV1.24B11,2013-05-15 16:40:00,
2013-05-15 11:41:00,75.2,71.7,29.97,NNE,19,6.0,9.0,89,0.00,,,0.25,WeatherCatV1.15B25,2013-05-15 16:41:00,
2013-05-15 11:45:00,77.8,71.8,29.95,ESE,122,3.0,6.0,82,0.00,,,0.00,WeatherCatV1.24B11,2013-05-15 16:45:00,
2013-05-15 11:46:00,75.7,71.9,29.96,SE,136,11.0,14.0,88,0.00,,,0.25,WeatherCatV1.15B25,2013-05-15 16:46:00,
2013-05-15 11:50:00,78.7,72.4,29.95,SE,132,3.0,11.0,81,0.00,,,0.00,WeatherCatV1.24B11,2013-05-15 16:50:00,
2013-05-15 11:51:00,76.4,71.5,29.95,East,82,0.0,9.0,85,0.00,,,0.25,WeatherCatV1.15B25,2013-05-15 16:51:00,
2013-05-15 11:55:00,79.3,71.8,29.94,ESE,123,4.0,10.0,78,0.00,,,0.00,WeatherCatV1.24B11,2013-05-15 16:55:00,
2013-05-15 11:56:00,77.5,71.9,29.95,SE,146,5.0,14.0,83,0.00,,,0.25,WeatherCatV1.15B25,2013-05-15 16:56:00,
2013-05-15 12:00:00,79.8,71.9,29.93,SE,126,5.0,5.0,77,0.00,,,0.00,WeatherCatV1.24B11,2013-05-15 17:00:00,
2013-05-15 12:01:00,78.4,72.4,29.95,ESE,105,13.0,13.0,82,0.00,,,0.25,WeatherCatV1.15B25,2013-05-15 17:01:00,
2013-05-15 12:05:00,80.2,71.9,29.93,ESE,123,4.0,8.0,76,0.00,,,0.00,WeatherCatV1.24B11,2013-05-15 17:05:00,
2013-05-15 12:06:00,79.1,71.6,29.94,SSE,161,13.0,13.0,78,0.00,,,0.25,WeatherCatV1.15B25,2013-05-15 17:06:00,
2013-05-15 12:10:00,80.6,72.3,29.93,SE,126,4.0,9.0,76,0.00,,,0.00,WeatherCatV1.24B11,2013-05-15 17:10:00,
2013-05-15 12:11:00,79.7,72.2,29.93,SE,125,12.0,12.0,78,0.00,,,0.25,WeatherCatV1.15B25,2013-05-15 17:11:00,
2013-05-15 12:15:00,81.1,72.8,29.93,SE,140,3.0,6.0,76,0.00,,,0.00,WeatherCatV1.24B11,2013-05-15 17:15:00,
2013-05-15 12:16:00,80.1,72.2,29.93,ESE,118,12.0,14.0,77,0.00,,,0.25,WeatherCatV1.15B25,2013-05-15 17:16:00,
2013-05-15 12:20:00,81.4,71.5,29.93,SE,129,3.0,12.0,72,0.00,,,0.00,WeatherCatV1.24B11,2013-05-15 17:20:00,
2013-05-15 12:21:00,80.5,72.2,29.93,SE,127,2.0,14.0,76,0.00,,,0.25,WeatherCatV1.15B25,2013-05-15 17:21:00,
2013-05-15 12:25:00,81.1,71.6,29.94,ESE,122,4.0,9.0,73,0.00,,,0.00,WeatherCatV1.24B11,2013-05-15 17:25:00,
2013-05-15 12:26:00,81.0,72.3,29.93,SSE,160,0.0,4.0,75,0.00,,,0.25,WeatherCatV1.15B25,2013-05-15 17:26:00,
2013-05-15 12:30:00,81.6,72.9,29.94,SE,126,3.0,4.0,75,0.00,,,0.00,WeatherCatV1.24B11,2013-05-15 17:30:00,
2013-05-15 12:31:00,81.5,72.0,29.93,SSE,164,3.0,12.0,73,0.00,,,0.25,WeatherCatV1.15B25,2013-05-15 17:31:00,
2013-05-15 12:35:00,82.1,72.2,29.93,SE,129,2.0,7.0,72,0.00,,,0.00,WeatherCatV1.24B11,2013-05-15 17:35:00,
2013-05-15 12:36:00,81.1,71.6,29.94,East,96,1.0,9.0,73,0.00,,,0.25,WeatherCatV1.15B25,2013-05-15 17:36:00,
2013-05-15 12:40:00,82.5,72.5,29.93,SE,129,3.0,7.0,72,0.00,,,0.00,WeatherCatV1.24B11,2013-05-15 17:40:00,
2013-05-15 12:41:00,81.3,72.6,29.94,ESE,114,1.0,11.0,75,0.00,,,0.25,WeatherCatV1.15B25,2013-05-15 17:41:00,
2013-05-15 12:45:00,81.7,71.3,29.92,ESE,123,3.0,7.0,71,0.00,,,0.00,WeatherCatV1.24B11,2013-05-15 17:45:00,
2013-05-15 12:46:00,82.0,72.5,29.94,South,171,5.0,13.0,73,0.00,,,0.25,WeatherCatV1.15B25,2013-05-15 17:46:00,
2013-05-15 12:50:00,81.6,72.5,29.92,SE,129,3.0,8.0,74,0.00,,,0.00,WeatherCatV1.24B11,2013-05-15 17:50:00,
2013-05-15 12:51:00,82.4,72.0,29.93,SE,138,0.0,13.0,71,0.00,,,0.25,WeatherCatV1.15B25,2013-05-15 17:51:00,
2013-05-15 12:55:00,81.5,71.6,29.92,ESE,121,3.0,9.0,72,0.00,,,0.00,WeatherCatV1.24B11,2013-05-15 17:55:00,
2013-05-15 12:56:00,82.2,71.8,29.93,ESE,114,8.0,8.0,71,0.00,,,0.25,WeatherCatV1.15B25,2013-05-15 17:56:00,
2013-05-15 13:00:00,81.2,71.7,29.92,SE,129,2.0,9.0,73,0.00,,,0.00,WeatherCatV1.24B11,2013-05-15 18:00:00,
2013-05-15 13:01:00,81.5,72.4,29.92,SE,132,5.0,8.0,74,0.00,,,0.25,WeatherCatV1.15B25,2013-05-15 18:01:00,
2013-05-15 13:05:00,81.5,72.0,29.92,SE,130,3.0,8.0,73,0.00,,,0.00,WeatherCatV1.24B11,2013-05-15 18:05:00,
2013-05-15 13:06:00,81.7,71.8,29.92,SE,125,0.0,10.0,72,0.00,,,0.25,WeatherCatV1.15B25,2013-05-15 18:06:00,
2013-05-15 13:10:00,81.8,71.0,29.92,SE,135,3.0,7.0,70,0.00,,,0.00,WeatherCatV1.24B11,2013-05-15 18:10:00,
2013-05-15 13:11:00,81.3,71.8,29.92,SE,137,0.0,5.0,73,0.00,,,0.25,WeatherCatV1.15B25,2013-05-15 18:11:00,
2013-05-15 13:15:00,82.0,71.2,29.91,ESE,120,3.0,5.0,70,0.00,,,0.00,WeatherCatV1.24B11,2013-05-15 18:15:00,
2013-05-15 13:16:00,81.3,71.8,29.92,ESE,114,1.0,8.0,73,0.00,,,0.25,WeatherCatV1.15B25,2013-05-15 18:16:00,
2013-05-15 13:20:00,82.9,72.1,29.91,SE,130,2.0,5.0,70,0.00,,,0.00,WeatherCatV1.24B11,2013-05-15 18:20:00,
2013-05-15 13:21:00,81.8,71.0,29.92,SE,142,7.0,9.0,70,0.00,,,0.25,WeatherCatV1.15B25,2013-05-15 18:21:00,
2013-05-15 13:25:00,83.4,72.1,29.91,SE,132,1.0,10.0,69,0.00,,,0.00,WeatherCatV1.24B11,2013-05-15 18:25:00,
2013-05-15 13:26:00,81.9,71.1,29.91,SSE,157,2.0,15.0,70,0.00,,,0.25,WeatherCatV1.15B25,2013-05-15 18:26:00,
2013-05-15 13:30:00,83.4,71.3,29.91,SE,126,3.0,8.0,67,0.00,,,0.00,WeatherCatV1.24B11,2013-05-15 18:30:00,
2013-05-15 13:31:00,82.7,72.3,29.91,SE,126,0.0,4.0,71,0.00,,,0.25,WeatherCatV1.15B25,2013-05-15 18:31:00,
2013-05-15 13:35:00,83.2,71.1,29.90,SE,137,3.0,7.0,67,0.00,,,0.00,WeatherCatV1.24B11,2013-05-15 18:35:00,
2013-05-15 13:36:00,83.3,72.0,29.91,East,101,5.0,5.0,69,0.00,,,0.25,WeatherCatV1.15B25,2013-05-15 18:36:00,
2013-05-15 13:40:00,83.6,71.5,29.91,SE,128,3.0,5.0,67,0.00,,,0.00,WeatherCatV1.24B11,2013-05-15 18:40:00,
2013-05-15 13:41:00,83.4,71.7,29.91,East,98,3.0,7.0,68,0.00,,,0.25,WeatherCatV1.15B25,2013-05-15 18:41:00,
2013-05-15 13:45:00,84.2,71.6,29.91,SE,126,2.0,7.0,66,0.00,,,0.00,WeatherCatV1.24B11,2013-05-15 18:45:00,
2013-05-15 13:46:00,83.3,71.2,29.91,ESE,110,5.0,8.0,67,0.00,,,0.25,WeatherCatV1.15B25,2013-05-15 18:46:00,
2013-05-15 13:50:00,84.4,71.8,29.91,ESE,119,1.0,7.0,66,0.00,,,0.00,WeatherCatV1.24B11,2013-05-15 18:50:00,
2013-05-15 13:51:00,83.5,71.8,29.91,NE,44,3.0,10.0,68,0.00,,,0.25,WeatherCatV1.15B25,2013-05-15 18:51:00,
2013-05-15 13:55:00,84.2,71.1,29.91,SE,144,2.0,5.0,65,0.00,,,0.00,WeatherCatV1.24B11,2013-05-15 18:55:00,
2013-05-15 13:56:00,84.1,71.9,29.91,ESE,117,2.0,9.0,67,0.00,,,0.25,WeatherCatV1.15B25,2013-05-15 18:56:00,
2013-05-15 14:00:00,84.3,71.2,29.91,SE,124,2.0,2.0,65,0.00,,,0.00,WeatherCatV1.24B11,2013-05-15 19:00:00,
2013-05-15 14:01:00,84.5,72.3,29.91,SSE,155,1.0,3.0,67,0.00,,,0.25,WeatherCatV1.15B25,2013-05-15 19:01:00,
2013-05-15 14:05:00,84.1,70.6,29.91,ESE,123,2.0,8.0,64,0.00,,,0.00,WeatherCatV1.24B11,2013-05-15 19:05:00,
2013-05-15 14:06:00,84.1,70.6,29.90,SSE,164,3.0,6.0,64,0.00,,,0.25,WeatherCatV1.15B25,2013-05-15 19:06:00,
2013-05-15 14:10:00,83.7,70.7,29.91,ESE,116,3.0,9.0,65,0.00,,,0.00,WeatherCatV1.24B11,2013-05-15 19:10:00,
2013-05-15 14:11:00,84.2,71.1,29.91,SE,130,4.0,5.0,65,0.00,,,0.25,WeatherCatV1.15B25,2013-05-15 19:11:00,
2013-05-15 14:15:00,83.3,70.7,29.91,SE,139,3.0,7.0,66,0.00,,,0.00,WeatherCatV1.24B11,2013-05-15 19:15:00,
2013-05-15 14:16:00,84.3,70.8,29.91,ESE,121,3.0,10.0,64,0.00,,,0.25,WeatherCatV1.15B25,2013-05-15 19:16:00,
2013-05-15 14:20:00,83.3,71.2,29.91,ESE,114,2.0,11.0,67,0.00,,,0.00,WeatherCatV1.24B11,2013-05-15 19:20:00,
2013-05-15 14:21:00,83.8,70.8,29.91,ESE,111,2.0,5.0,65,0.00,,,0.25,WeatherCatV1.15B25,2013-05-15 19:21:00,
2013-05-15 14:25:00,83.2,71.1,29.91,SE,128,2.0,2.0,67,0.00,,,0.00,WeatherCatV1.24B11,2013-05-15 19:25:00,
2013-05-15 14:26:00,83.5,70.9,29.91,SSW,201,2.0,9.0,66,0.00,,,0.25,WeatherCatV1.15B25,2013-05-15 19:26:00,
2013-05-15 14:30:00,83.2,71.5,29.91,SE,137,1.0,4.0,68,0.00,,,0.00,WeatherCatV1.24B11,2013-05-15 19:30:00,
2013-05-15 14:31:00,83.2,71.5,29.91,ESE,103,4.0,8.0,68,0.00,,,0.25,WeatherCatV1.15B25,2013-05-15 19:31:00,
2013-05-15 14:35:00,83.3,71.6,29.90,SE,133,1.0,8.0,68,0.00,,,0.00,WeatherCatV1.24B11,2013-05-15 19:35:00,
2013-05-15 14:36:00,83.3,71.2,29.91,SE,144,3.0,5.0,67,0.00,,,0.25,WeatherCatV1.15B25,2013-05-15 19:36:00,
2013-05-15 14:40:00,83.2,71.1,29.90,SE,133,2.0,8.0,67,0.00,,,0.00,WeatherCatV1.24B11,2013-05-15 19:40:00,
2013-05-15 14:41:00,83.2,71.1,29.91,East,88,0.0,5.0,67,0.00,,,0.25,WeatherCatV1.15B25,2013-05-15 19:41:00,
2013-05-15 14:45:00,84.0,71.8,29.90,SE,134,2.0,11.0,67,0.00,,,0.00,WeatherCatV1.24B11,2013-05-15 19:45:00,
2013-05-15 14:46:00,83.2,71.5,29.90,SSE,152,0.0,5.0,68,0.00,,,0.25,WeatherCatV1.15B25,2013-05-15 19:46:00,
2013-05-15 14:50:00,83.5,71.4,29.90,ESE,105,2.0,6.0,67,0.00,,,0.00,WeatherCatV1.24B11,2013-05-15 19:50:00,
2013-05-15 14:51:00,83.2,71.1,29.90,SE,140,5.0,9.0,67,0.00,,,0.25,WeatherCatV1.15B25,2013-05-15 19:51:00,
2013-05-15 14:55:00,82.5,71.3,29.90,ESE,111,3.0,5.0,69,0.00,,,0.00,WeatherCatV1.24B11,2013-05-15 19:55:00,
2013-05-15 14:56:00,83.8,72.1,29.90,ESE,121,4.0,7.0,68,0.00,,,0.25,WeatherCatV1.15B25,2013-05-15 19:56:00,
2013-05-15 15:00:00,82.1,71.3,29.89,ESE,113,3.0,7.0,70,0.00,,,0.00,WeatherCatV1.24B11,2013-05-15 20:00:00,
2013-05-15 15:01:00,83.7,71.5,29.90,ENE,69,0.0,7.0,67,0.00,,,0.25,WeatherCatV1.15B25,2013-05-15 20:01:00,
2013-05-15 15:05:00,82.2,71.4,29.89,ESE,116,2.0,5.0,70,0.00,,,0.00,WeatherCatV1.24B11,2013-05-15 20:05:00,
2013-05-15 15:06:00,82.7,71.0,29.90,ESE,111,0.0,7.0,68,0.00,,,0.25,WeatherCatV1.15B25,2013-05-15 20:06:00,
2013-05-15 15:10:00,81.8,71.0,29.89,ESE,123,2.0,12.0,70,0.00,,,0.00,WeatherCatV1.24B11,2013-05-15 20:10:00,
2013-05-15 15:11:00,82.2,71.4,29.89,ESE,112,4.0,4.0,70,0.00,,,0.25,WeatherCatV1.15B25,2013-05-15 20:11:00,
2013-05-15 15:15:00,82.0,72.1,29.88,ESE,108,2.0,2.0,72,0.00,,,0.00,WeatherCatV1.24B11,2013-05-15 20:15:00,
2013-05-15 15:16:00,82.3,71.5,29.89,East,92,8.0,9.0,70,0.00,,,0.25,WeatherCatV1.15B25,2013-05-15 20:16:00,
2013-05-15 15:20:00,83.0,72.6,29.88,SE,125,1.0,1.0,71,0.00,,,0.00,WeatherCatV1.24B11,2013-05-15 20:20:00,
2013-05-15 15:21:00,82.0,71.2,29.89,East,88,0.0,7.0,70,0.00,,,0.25,WeatherCatV1.15B25,2013-05-15 20:21:00,
2013-05-15 15:25:00,83.6,72.3,29.87,SE,126,2.0,7.0,69,0.00,,,0.00,WeatherCatV1.24B11,2013-05-15 20:25:00,
2013-05-15 15:26:00,81.8,71.5,29.88,East,101,1.0,2.0,71,0.00,,,0.25,WeatherCatV1.15B25,2013-05-15 20:26:00,
2013-05-15 15:30:00,83.5,72.2,29.87,SE,126,3.0,7.0,69,0.00,,,0.00,WeatherCatV1.24B11,2013-05-15 20:30:00,
2013-05-15 15:31:00,82.6,72.2,29.88,ESE,123,5.0,5.0,71,0.00,,,0.25,WeatherCatV1.15B25,2013-05-15 20:31:00,
2013-05-15 15:35:00,83.3,72.0,29.87,SE,137,2.0,6.0,69,0.00,,,0.00,WeatherCatV1.24B11,2013-05-15 20:35:00,
2013-05-15 15:36:00,83.5,72.2,29.88,East,89,8.0,8.0,69,0.00,,,0.25,WeatherCatV1.15B25,2013-05-15 20:36:00,
2013-05-15 15:40:00,83.5,72.7,29.87,ESE,121,2.0,6.0,70,0.00,,,0.00,WeatherCatV1.24B11,2013-05-15 20:40:00,
2013-05-15 15:41:00,83.6,72.8,29.87,SE,135,0.0,1.0,70,0.00,,,0.25,WeatherCatV1.15B25,2013-05-15 20:41:00,
2013-05-15 15:45:00,83.2,72.4,29.86,ESE,118,2.0,6.0,70,0.00,,,0.00,WeatherCatV1.24B11,2013-05-15 20:45:00,
2013-05-15 15:46:00,83.3,72.0,29.87,SE,144,6.0,6.0,69,0.00,,,0.25,WeatherCatV1.15B25,2013-05-15 20:46:00,
2013-05-15 15:50:00,83.3,72.0,29.86,ESE,114,3.0,13.0,69,0.00,,,0.00,WeatherCatV1.24B11,2013-05-15 20:50:00,
2013-05-15 15:51:00,83.5,72.7,29.86,SE,134,6.0,6.0,70,0.00,,,0.25,WeatherCatV1.15B25,2013-05-15 20:51:00,
2013-05-15 15:55:00,82.9,72.1,29.87,ESE,117,3.0,10.0,70,0.00,,,0.00,WeatherCatV1.24B11,2013-05-15 20:55:00,
2013-05-15 15:56:00,83.2,71.9,29.87,East,98,5.0,8.0,69,0.00,,,0.25,WeatherCatV1.15B25,2013-05-15 20:56:00,
2013-05-15 16:00:00,82.8,72.0,29.86,ESE,116,3.0,5.0,70,0.00,,,0.00,WeatherCatV1.24B11,2013-05-15 21:00:00,
2013-05-15 16:01:00,83.5,72.7,29.86,SE,140,7.0,9.0,70,0.00,,,0.25,WeatherCatV1.15B25,2013-05-15 21:01:00,
2013-05-15 16:05:00,82.6,72.2,29.87,SE,124,2.0,3.0,71,0.00,,,0.00,WeatherCatV1.24B11,2013-05-15 21:05:00,
2013-05-15 16:06:00,83.0,71.8,29.87,SSE,166,3.0,6.0,69,0.00,,,0.25,WeatherCatV1.15B25,2013-05-15 21:06:00,
2013-05-15 16:10:00,82.6,72.6,29.86,SE,131,2.0,8.0,72,0.00,,,0.00,WeatherCatV1.24B11,2013-05-15 21:10:00,
2013-05-15 16:11:00,82.8,72.0,29.86,East,95,0.0,9.0,70,0.00,,,0.25,WeatherCatV1.15B25,2013-05-15 21:11:00,
2013-05-15 16:15:00,82.9,72.9,29.86,ESE,115,2.0,8.0,72,0.00,,,0.00,WeatherCatV1.24B11,2013-05-15 21:15:00,
2013-05-15 16:16:00,82.7,71.9,29.86,South,181,6.0,7.0,70,0.00,,,0.25,WeatherCatV1.15B25,2013-05-15 21:16:00,
2013-05-15 16:20:00,83.7,73.3,29.86,SE,129,2.0,5.0,71,0.00,,,0.00,WeatherCatV1.24B11,2013-05-15 21:20:00,
2013-05-15 16:21:00,82.5,72.1,29.86,SSE,148,0.0,2.0,71,0.00,,,0.25,WeatherCatV1.15B25,2013-05-15 21:21:00,
2013-05-15 16:25:00,83.9,72.6,29.86,ESE,114,2.0,7.0,69,0.00,,,0.00,WeatherCatV1.24B11,2013-05-15 21:25:00,
2013-05-15 16:26:00,82.8,72.8,29.86,East,99,6.0,11.0,72,0.00,,,0.25,WeatherCatV1.15B25,2013-05-15 21:26:00,
2013-05-15 16:30:00,83.2,72.8,29.86,ESE,119,2.0,7.0,71,0.00,,,0.00,WeatherCatV1.24B11,2013-05-15 21:30:00,
2013-05-15 16:31:00,83.5,73.5,29.86,ESE,118,5.0,5.0,72,0.00,,,0.25,WeatherCatV1.15B25,2013-05-15 21:31:00,
2013-05-15 16:35:00,82.8,72.8,29.86,ESE,114,3.0,7.0,72,0.00,,,0.00,WeatherCatV1.24B11,2013-05-15 21:35:00,
2013-05-15 16:36:00,84.0,72.7,29.85,East,101,0.0,6.0,69,0.00,,,0.25,WeatherCatV1.15B25,2013-05-15 21:36:00,
2013-05-15 16:40:00,82.1,72.2,29.86,ESE,118,4.0,4.0,72,0.00,,,0.00,WeatherCatV1.24B11,2013-05-15 21:40:00,
2013-05-15 16:41:00,83.3,72.9,29.85,SSE,156,3.0,4.0,71,0.00,,,0.25,WeatherCatV1.15B25,2013-05-15 21:41:00,
2013-05-15 16:45:00,82.6,73.0,29.85,ESE,113,3.0,4.0,73,0.00,,,0.00,WeatherCatV1.24B11,2013-05-15 21:45:00,
2013-05-15 16:46:00,82.9,72.9,29.86,SE,125,4.0,11.0,72,0.00,,,0.25,WeatherCatV1.15B25,2013-05-15 21:46:00,
2013-05-15 16:50:00,82.1,72.2,29.85,ESE,117,3.0,7.0,72,0.00,,,0.00,WeatherCatV1.24B11,2013-05-15 21:50:00,
2013-05-15 16:51:00,82.2,72.2,29.86,SSE,155,9.0,9.0,72,0.00,,,0.25,WeatherCatV1.15B25,2013-05-15 21:51:00,
2013-05-15 16:55:00,81.6,72.5,29.85,ESE,112,3.0,6.0,74,0.00,,,0.00,WeatherCatV1.24B11,2013-05-15 21:55:00,
2013-05-15 16:56:00,82.5,73.4,29.85,East,92,1.0,8.0,74,0.00,,,0.25,WeatherCatV1.15B25,2013-05-15 21:56:00,
2013-05-15 17:00:00,81.6,72.5,29.85,ESE,105,2.0,3.0,74,0.00,,,0.00,WeatherCatV1.24B11,2013-05-15 22:00:00,
2013-05-15 17:01:00,82.3,72.8,29.86,SE,138,0.0,5.0,73,0.00,,,0.25,WeatherCatV1.15B25,2013-05-15 22:01:00,
2013-05-15 17:05:00,81.5,72.4,29.85,ESE,110,2.0,11.0,74,0.00,,,0.00,WeatherCatV1.24B11,2013-05-15 22:05:00,
2013-05-15 17:06:00,81.6,72.1,29.85,East,99,3.0,10.0,73,0.00,,,0.25,WeatherCatV1.15B25,2013-05-15 22:06:00,
2013-05-15 17:10:00,81.8,72.7,29.84,ESE,113,3.0,10.0,74,0.00,,,0.00,WeatherCatV1.24B11,2013-05-15 22:10:00,
2013-05-15 17:11:00,81.6,72.5,29.85,East,92,0.0,9.0,74,0.00,,,0.25,WeatherCatV1.15B25,2013-05-15 22:11:00,
2013-05-15 17:15:00,81.7,72.6,29.84,ESE,115,3.0,5.0,74,0.00,,,0.00,WeatherCatV1.24B11,2013-05-15 22:15:00,
2013-05-15 17:16:00,81.6,72.5,29.85,ESE,106,1.0,3.0,74,0.00,,,0.25,WeatherCatV1.15B25,2013-05-15 22:16:00,
2013-05-15 17:20:00,81.8,72.7,29.84,ESE,122,3.0,8.0,74,0.00,,,0.00,WeatherCatV1.24B11,2013-05-15 22:20:00,
2013-05-15 17:21:00,81.6,72.9,29.84,ESE,115,0.0,11.0,75,0.00,,,0.25,WeatherCatV1.15B25,2013-05-15 22:21:00,
2013-05-15 17:25:00,82.3,72.8,29.84,ESE,123,3.0,9.0,73,0.00,,,0.00,WeatherCatV1.24B11,2013-05-15 22:25:00,
2013-05-15 17:26:00,81.7,72.2,29.84,East,96,5.0,17.0,73,0.00,,,0.25,WeatherCatV1.15B25,2013-05-15 22:26:00,
2013-05-15 17:30:00,82.5,72.5,29.84,ESE,117,3.0,3.0,72,0.00,,,0.00,WeatherCatV1.24B11,2013-05-15 22:30:00,
2013-05-15 17:31:00,81.8,72.3,29.84,East,95,0.0,11.0,73,0.00,,,0.25,WeatherCatV1.15B25,2013-05-15 22:31:00,
2013-05-15 17:35:00,82.6,72.6,29.83,ESE,114,2.0,7.0,72,0.00,,,0.00,WeatherCatV1.24B11,2013-05-15 22:35:00,
2013-05-15 17:36:00,82.1,73.0,29.84,ESE,109,0.0,7.0,74,0.00,,,0.25,WeatherCatV1.15B25,2013-05-15 22:36:00,
2013-05-15 17:40:00,82.6,72.2,29.83,ESE,107,3.0,15.0,71,0.00,,,0.00,WeatherCatV1.24B11,2013-05-15 22:40:00,
2013-05-15 17:41:00,82.5,72.5,29.84,SE,142,5.0,5.0,72,0.00,,,0.25,WeatherCatV1.15B25,2013-05-15 22:41:00,
2013-05-15 17:45:00,81.6,71.7,29.84,ESE,105,4.0,6.0,72,0.00,,,0.00,WeatherCatV1.24B11,2013-05-15 22:45:00,
2013-05-15 17:46:00,82.6,72.2,29.83,ESE,102,0.0,10.0,71,0.00,,,0.25,WeatherCatV1.15B25,2013-05-15 22:46:00,
2013-05-15 17:50:00,81.0,71.9,29.84,ESE,104,3.0,3.0,74,0.00,,,0.00,WeatherCatV1.24B11,2013-05-15 22:50:00,
2013-05-15 17:51:00,82.7,72.3,29.83,East,79,8.0,13.0,71,0.00,,,0.25,WeatherCatV1.15B25,2013-05-15 22:51:00,
2013-05-15 17:55:00,80.9,72.2,29.84,ESE,103,2.0,8.0,75,0.00,,,0.00,WeatherCatV1.24B11,2013-05-15 22:55:00,
2013-05-15 17:56:00,81.8,71.5,29.83,East,82,0.0,12.0,71,0.00,,,0.25,WeatherCatV1.15B25,2013-05-15 22:56:00,
2013-05-15 18:00:00,80.9,71.8,29.84,ESE,120,2.0,6.0,74,0.00,,,0.00,WeatherCatV1.24B11,2013-05-15 23:00:00,
2013-05-15 18:01:00,81.1,72.0,29.84,ESE,105,1.0,3.0,74,0.00,,,0.25,WeatherCatV1.15B25,2013-05-15 23:01:00,
2013-05-15 18:05:00,81.1,72.4,29.83,ESE,115,2.0,9.0,75,0.00,,,0.00,WeatherCatV1.24B11,2013-05-15 23:05:00,
2013-05-15 18:06:00,80.9,72.2,29.84,SE,140,8.0,8.0,75,0.00,,,0.25,WeatherCatV1.15B25,2013-05-15 23:06:00,
2013-05-15 18:10:00,81.2,72.1,29.83,ESE,123,3.0,5.0,74,0.00,,,0.00,WeatherCatV1.24B11,2013-05-15 23:10:00,
2013-05-15 18:11:00,80.9,71.8,29.84,East,87,0.0,4.0,74,0.00,,,0.25,WeatherCatV1.15B25,2013-05-15 23:11:00,
2013-05-15 18:15:00,81.2,72.1,29.83,ESE,116,3.0,8.0,74,0.00,,,0.00,WeatherCatV1.24B11,2013-05-15 23:15:00,
2013-05-15 18:16:00,81.0,72.3,29.83,ESE,118,2.0,8.0,75,0.00,,,0.25,WeatherCatV1.15B25,2013-05-15 23:16:00,
2013-05-15 18:20:00,80.8,71.7,29.83,ESE,111,3.0,5.0,74,0.00,,,0.00,WeatherCatV1.24B11,2013-05-15 23:20:00,
2013-05-15 18:21:00,81.3,72.2,29.83,East,88,3.0,5.0,74,0.00,,,0.25,WeatherCatV1.15B25,2013-05-15 23:21:00,
2013-05-15 18:25:00,80.4,71.7,29.83,ESE,120,3.0,7.0,75,0.00,,,0.00,WeatherCatV1.24B11,2013-05-15 23:25:00,
2013-05-15 18:26:00,81.1,72.0,29.83,SE,136,0.0,9.0,74,0.00,,,0.25,WeatherCatV1.15B25,2013-05-15 23:26:00,
2013-05-15 18:30:00,79.9,71.6,29.83,ESE,119,3.0,9.0,76,0.00,,,0.00,WeatherCatV1.24B11,2013-05-15 23:30:00,
2013-05-15 18:31:00,80.9,71.8,29.83,ESE,117,0.0,5.0,74,0.00,,,0.25,WeatherCatV1.15B25,2013-05-15 23:31:00,
2013-05-15 18:35:00,79.5,71.3,29.83,ESE,117,3.0,6.0,76,0.00,,,0.00,WeatherCatV1.24B11,2013-05-15 23:35:00,
2013-05-15 18:36:00,80.6,71.9,29.83,ESE,123,2.0,7.0,75,0.00,,,0.25,WeatherCatV1.15B25,2013-05-15 23:36:00,
2013-05-15 18:40:00,79.1,71.3,29.83,ESE,117,3.0,9.0,77,0.00,,,0.00,WeatherCatV1.24B11,2013-05-15 23:40:00,
2013-05-15 18:41:00,80.1,71.4,29.83,ESE,116,0.0,9.0,75,0.00,,,0.25,WeatherCatV1.15B25,2013-05-15 23:41:00,
2013-05-15 18:45:00,79.0,71.5,29.83,ESE,119,4.0,5.0,78,0.00,,,0.00,WeatherCatV1.24B11,2013-05-15 23:45:00,
2013-05-15 18:46:00,79.7,71.4,29.83,SE,124,2.0,6.0,76,0.00,,,0.25,WeatherCatV1.15B25,2013-05-15 23:46:00,
2013-05-15 18:50:00,79.0,71.5,29.83,ESE,119,3.0,7.0,78,0.00,,,0.00,WeatherCatV1.24B11,2013-05-15 23:50:00,
2013-05-15 18:51:00,79.3,71.4,29.83,East,82,8.0,11.0,77,0.00,,,0.25,WeatherCatV1.15B25,2013-05-15 23:51:00,
2013-05-15 18:55:00,79.1,71.6,29.82,SE,124,2.0,8.0,78,0.00,,,0.00,WeatherCatV1.24B11,2013-05-15 23:55:00,
2013-05-15 18:56:00,79.0,71.2,29.83,ESE,106,3.0,11.0,77,0.00,,,0.25,WeatherCatV1.15B25,2013-05-15 23:56:00,
2013-05-15 19:00:00,78.7,71.2,29.82,SE,124,3.0,9.0,78,0.00,,,0.00,WeatherCatV1.24B11,2013-05-16 00:00:00,
2013-05-15 19:01:00,79.0,71.5,29.83,ESE,121,0.0,3.0,78,0.00,,,0.25,WeatherCatV1.15B25,2013-05-16 00:01:00,
2013-05-15 19:05:00,78.4,70.9,29.82,ESE,116,3.0,5.0,78,0.00,,,0.00,WeatherCatV1.24B11,2013-05-16 00:05:00,
2013-05-15 19:06:00,79.0,71.5,29.82,SE,140,0.0,7.0,78,0.00,,,0.25,WeatherCatV1.15B25,2013-05-16 00:06:00,
2013-05-15 19:10:00,78.2,71.1,29.82,SE,125,3.0,7.0,79,0.00,,,0.00,WeatherCatV1.24B11,2013-05-16 00:10:00,
2013-05-15 19:11:00,78.8,71.3,29.82,SSE,148,2.0,5.0,78,0.00,,,0.25,WeatherCatV1.15B25,2013-05-16 00:11:00,
2013-05-15 19:15:00,78.0,70.9,29.82,SE,130,3.0,4.0,79,0.00,,,0.00,WeatherCatV1.24B11,2013-05-16 00:15:00,
2013-05-15 19:16:00,78.5,71.1,29.82,SE,135,1.0,11.0,78,0.00,,,0.25,WeatherCatV1.15B25,2013-05-16 00:16:00,
2013-05-15 19:20:00,77.8,71.1,29.82,ESE,122,2.0,10.0,80,0.00,,,0.00,WeatherCatV1.24B11,2013-05-16 00:20:00,
2013-05-15 19:21:00,78.2,71.1,29.82,SW,218,4.0,10.0,79,0.00,,,0.25,WeatherCatV1.15B25,2013-05-16 00:21:00,
2013-05-15 19:25:00,77.5,70.8,29.82,SE,129,2.0,2.0,80,0.00,,,0.00,WeatherCatV1.24B11,2013-05-16 00:25:00,
2013-05-15 19:26:00,78.0,70.9,29.82,SE,134,0.0,6.0,79,0.00,,,0.25,WeatherCatV1.15B25,2013-05-16 00:26:00,
2013-05-15 19:30:00,77.3,70.6,29.82,SE,140,2.0,5.0,80,0.00,,,0.00,WeatherCatV1.24B11,2013-05-16 00:30:00,
2013-05-15 19:31:00,77.8,71.1,29.82,ESE,107,0.0,5.0,80,0.00,,,0.25,WeatherCatV1.15B25,2013-05-16 00:31:00,
2013-05-15 19:35:00,77.1,70.4,29.82,ESE,115,2.0,3.0,80,0.00,,,0.00,WeatherCatV1.24B11,2013-05-16 00:35:00,
2013-05-15 19:36:00,77.6,70.9,29.82,SE,144,0.0,8.0,80,0.00,,,0.25,WeatherCatV1.15B25,2013-05-16 00:36:00,
2013-05-15 19:40:00,76.9,70.2,29.82,ESE,123,2.0,12.0,80,0.00,,,0.00,WeatherCatV1.24B11,2013-05-16 00:40:00,
2013-05-15 19:41:00,77.3,70.6,29.82,SE,144,6.0,8.0,80,0.00,,,0.25,WeatherCatV1.15B25,2013-05-16 00:41:00,
2013-05-15 19:45:00,76.8,70.5,29.81,SE,127,2.0,7.0,81,0.00,,,0.00,WeatherCatV1.24B11,2013-05-16 00:45:00,
2013-05-15 19:46:00,77.2,70.5,29.82,ESE,105,3.0,8.0,80,0.00,,,0.25,WeatherCatV1.15B25,2013-05-16 00:46:00,
2013-05-15 19:50:00,76.6,70.3,29.81,ESE,116,3.0,6.0,81,0.00,,,0.00,WeatherCatV1.24B11,2013-05-16 00:50:00,
2013-05-15 19:51:00,77.0,70.3,29.82,East,92,3.0,9.0,80,0.00,,,0.25,WeatherCatV1.15B25,2013-05-16 00:51:00,
2013-05-15 19:55:00,76.4,70.5,29.81,ESE,114,3.0,9.0,82,0.00,,,0.00,WeatherCatV1.24B11,2013-05-16 00:55:00,
2013-05-15 19:56:00,76.8,70.1,29.81,SE,130,3.0,10.0,80,0.00,,,0.25,WeatherCatV1.15B25,2013-05-16 00:56:00,
2013-05-15 20:00:00,76.1,70.2,29.81,ESE,116,3.0,7.0,82,0.00,,,0.00,WeatherCatV1.24B11,2013-05-16 01:00:00,
2013-05-15 20:01:00,76.6,70.3,29.81,ESE,105,0.0,12.0,81,0.00,,,0.25,WeatherCatV1.15B25,2013-05-16 01:01:00,
2013-05-15 20:05:00,76.0,70.1,29.81,ESE,109,2.0,5.0,82,0.00,,,0.00,WeatherCatV1.24B11,2013-05-16 01:05:00,
2013-05-15 20:06:00,76.4,70.1,29.81,ENE,71,4.0,5.0,81,0.00,,,0.25,WeatherCatV1.15B25,2013-05-16 01:06:00,
2013-05-15 20:10:00,75.8,69.9,29.82,ESE,116,3.0,6.0,82,0.00,,,0.00,WeatherCatV1.24B11,2013-05-16 01:10:00,
2013-05-15 20:11:00,76.3,70.4,29.81,ESE,110,4.0,4.0,82,0.00,,,0.25,WeatherCatV1.15B25,2013-05-16 01:11:00,
2013-05-15 20:15:00,75.7,70.2,29.81,ESE,105,3.0,6.0,83,0.00,,,0.00,WeatherCatV1.24B11,2013-05-16 01:15:00,
2013-05-15 20:16:00,76.0,70.1,29.81,ESE,107,0.0,5.0,82,0.00,,,0.25,WeatherCatV1.15B25,2013-05-16 01:16:00,
2013-05-15 20:20:00,75.7,70.2,29.81,ESE,108,3.0,6.0,83,0.00,,,0.00,WeatherCatV1.24B11,2013-05-16 01:20:00,
2013-05-15 20:21:00,75.8,69.9,29.82,SE,144,0.0,13.0,82,0.00,,,0.25,WeatherCatV1.15B25,2013-05-16 01:21:00,
2013-05-15 20:25:00,75.5,70.0,29.81,ESE,120,2.0,7.0,83,0.00,,,0.00,WeatherCatV1.24B11,2013-05-16 01:25:00,
2013-05-15 20:26:00,75.8,70.3,29.82,East,89,6.0,10.0,83,0.00,,,0.25,WeatherCatV1.15B25,2013-05-16 01:26:00,
2013-05-15 20:30:00,75.4,69.9,29.81,SE,130,2.0,10.0,83,0.00,,,0.00,WeatherCatV1.24B11,2013-05-16 01:30:00,
2013-05-15 20:31:00,75.7,70.2,29.82,ESE,103,2.0,6.0,83,0.00,,,0.25,WeatherCatV1.15B25,2013-05-16 01:31:00,
2013-05-15 20:35:00,75.2,69.7,29.81,ESE,118,3.0,13.0,83,0.00,,,0.00,WeatherCatV1.24B11,2013-05-16 01:35:00,
2013-05-15 20:36:00,75.6,70.1,29.81,SE,124,2.0,9.0,83,0.00,,,0.25,WeatherCatV1.15B25,2013-05-16 01:36:00,
2013-05-15 20:40:00,75.0,69.8,29.81,ESE,123,3.0,7.0,84,0.00,,,0.00,WeatherCatV1.24B11,2013-05-16 01:40:00,
2013-05-15 20:41:00,75.4,69.9,29.81,East,87,3.0,6.0,83,0.00,,,0.25,WeatherCatV1.15B25,2013-05-16 01:41:00,
2013-05-15 20:45:00,74.8,69.6,29.82,ESE,121,2.0,13.0,84,0.00,,,0.00,WeatherCatV1.24B11,2013-05-16 01:45:00,
2013-05-15 20:46:00,75.2,69.7,29.81,ESE,111,12.0,12.0,83,0.00,,,0.25,WeatherCatV1.15B25,2013-05-16 01:46:00,
2013-05-15 20:50:00,74.7,69.9,29.82,SE,134,2.0,7.0,85,0.00,,,0.00,WeatherCatV1.24B11,2013-05-16 01:50:00,
2013-05-15 20:51:00,75.0,69.8,29.81,South,173,7.0,7.0,84,0.00,,,0.25,WeatherCatV1.15B25,2013-05-16 01:51:00,
2013-05-15 20:55:00,74.5,69.7,29.82,ESE,120,2.0,4.0,85,0.00,,,0.00,WeatherCatV1.24B11,2013-05-16 01:55:00,
2013-05-15 20:56:00,74.9,69.7,29.82,East,84,9.0,10.0,84,0.00,,,0.25,WeatherCatV1.15B25,2013-05-16 01:56:00,
2013-05-15 21:00:00,74.4,69.6,29.82,ESE,114,2.0,0.0,85,0.00,,,0.00,WeatherCatV1.24B11,2013-05-16 02:00:00,
2013-05-15 21:01:00,74.7,69.5,29.82,SSE,153,7.0,7.0,84,0.00,,,0.25,WeatherCatV1.15B25,2013-05-16 02:01:00,
2013-05-15 21:05:00,74.3,69.5,29.82,East,96,1.0,2.0,85,0.00,,,0.00,WeatherCatV1.24B11,2013-05-16 02:05:00,
2013-05-15 21:06:00,74.6,69.8,29.82,SE,140,1.0,8.0,85,0.00,,,0.25,WeatherCatV1.15B25,2013-05-16 02:06:00,
2013-05-15 21:10:00,74.2,69.4,29.82,ESE,120,1.0,1.0,85,0.00,,,0.00,WeatherCatV1.24B11,2013-05-16 02:10:00,
2013-05-15 21:11:00,74.5,69.7,29.82,ESE,121,0.0,3.0,85,0.00,,,0.25,WeatherCatV1.15B25,2013-05-16 02:11:00,
2013-05-15 21:15:00,74.1,69.6,29.82,SE,133,2.0,8.0,86,0.00,,,0.00,WeatherCatV1.24B11,2013-05-16 02:15:00,
2013-05-15 21:16:00,74.3,69.5,29.82,SE,140,0.0,8.0,85,0.00,,,0.25,WeatherCatV1.15B25,2013-05-16 02:16:00,
2013-05-15 21:20:00,74.0,69.5,29.82,ESE,121,2.0,5.0,86,0.00,,,0.00,WeatherCatV1.24B11,2013-05-16 02:20:00,
2013-05-15 21:21:00,74.2,69.4,29.82,South,184,2.0,6.0,85,0.00,,,0.25,WeatherCatV1.15B25,2013-05-16 02:21:00,
2013-05-15 21:25:00,73.8,69.3,29.82,SE,130,1.0,6.0,86,0.00,,,0.00,WeatherCatV1.24B11,2013-05-16 02:25:00,
2013-05-15 21:26:00,74.1,69.3,29.82,SSE,160,0.0,6.0,85,0.00,,,0.25,WeatherCatV1.15B25,2013-05-16 02:26:00,
2013-05-15 21:30:00,73.8,69.3,29.82,ESE,117,2.0,5.0,86,0.00,,,0.00,WeatherCatV1.24B11,2013-05-16 02:30:00,
2013-05-15 21:31:00,74.0,69.5,29.82,ESE,114,0.0,3.0,86,0.00,,,0.25,WeatherCatV1.15B25,2013-05-16 02:31:00,
2013-05-15 21:35:00,73.7,69.2,29.83,ESE,116,2.0,3.0,86,0.00,,,0.00,WeatherCatV1.24B11,2013-05-16 02:35:00,
2013-05-15 21:36:00,73.9,69.4,29.82,ESE,110,0.0,4.0,86,0.00,,,0.25,WeatherCatV1.15B25,2013-05-16 02:36:00,
2013-05-15 21:40:00,73.5,69.0,29.83,ESE,115,2.0,5.0,86,0.00,,,0.00,WeatherCatV1.24B11,2013-05-16 02:40:00,
2013-05-15 21:41:00,73.8,69.3,29.82,ESE,121,0.0,6.0,86,0.00,,,0.25,WeatherCatV1.15B25,2013-05-16 02:41:00,
2013-05-15 21:45:00,73.4,68.9,29.83,ESE,119,2.0,8.0,86,0.00,,,0.00,WeatherCatV1.24B11,2013-05-16 02:45:00,
2013-05-15 21:46:00,73.7,69.2,29.83,ESE,102,0.0,14.0,86,0.00,,,0.25,WeatherCatV1.15B25,2013-05-16 02:46:00,
2013-05-15 21:50:00,73.4,68.9,29.83,ESE,120,2.0,4.0,86,0.00,,,0.00,WeatherCatV1.24B11,2013-05-16 02:50:00,
2013-05-15 21:51:00,73.6,69.1,29.83,East,80,0.0,10.0,86,0.00,,,0.25,WeatherCatV1.15B25,2013-05-16 02:51:00,
2013-05-15 21:55:00,73.3,69.2,29.83,SE,128,2.0,3.0,87,0.00,,,0.00,WeatherCatV1.24B11,2013-05-16 02:55:00,
2013-05-15 21:56:00,73.4,68.9,29.83,SSW,199,5.0,8.0,86,0.00,,,0.25,WeatherCatV1.15B25,2013-05-16 02:56:00,
2013-05-15 22:00:00,73.3,69.2,29.83,SE,131,1.0,8.0,87,0.00,,,0.00,WeatherCatV1.24B11,2013-05-16 03:00:00,
2013-05-15 22:01:00,73.4,68.9,29.83,SE,141,0.0,7.0,86,0.00,,,0.25,WeatherCatV1.15B25,2013-05-16 03:01:00,
2013-05-15 22:05:00,73.3,69.2,29.83,ESE,121,2.0,4.0,87,0.00,,,0.00,WeatherCatV1.24B11,2013-05-16 03:05:00,
2013-05-15 22:06:00,73.3,69.2,29.83,ESE,118,0.0,5.0,87,0.00,,,0.25,WeatherCatV1.15B25,2013-05-16 03:06:00,
2013-05-15 22:10:00,73.3,69.2,29.84,SE,131,2.0,7.0,87,0.00,,,0.00,WeatherCatV1.24B11,2013-05-16 03:10:00,
2013-05-15 22:11:00,73.3,69.2,29.83,ESE,110,3.0,8.0,87,0.00,,,0.25,WeatherCatV1.15B25,2013-05-16 03:11:00,
2013-05-15 22:15:00,73.3,69.2,29.84,ESE,118,2.0,3.0,87,0.00,,,0.00,WeatherCatV1.24B11,2013-05-16 03:15:00,
2013-05-15 22:16:00,73.3,69.2,29.83,East,100,0.0,5.0,87,0.00,,,0.25,WeatherCatV1.15B25,2013-05-16 03:16:00,
2013-05-15 22:20:00,73.4,69.3,29.84,SE,133,2.0,4.0,87,0.00,,,0.00,WeatherCatV1.24B11,2013-05-16 03:20:00,
2013-05-15 22:21:00,73.3,69.2,29.84,East,82,5.0,5.0,87,0.00,,,0.25,WeatherCatV1.15B25,2013-05-16 03:21:00,
2013-05-15 22:25:00,73.4,69.3,29.85,ESE,121,3.0,5.0,87,0.00,,,0.00,WeatherCatV1.24B11,2013-05-16 03:25:00,
2013-05-15 22:26:00,73.3,69.2,29.84,East,97,3.0,7.0,87,0.00,,,0.25,WeatherCatV1.15B25,2013-05-16 03:26:00,
2013-05-15 22:30:00,73.4,69.3,29.84,ESE,123,3.0,8.0,87,0.00,,,0.00,WeatherCatV1.24B11,2013-05-16 03:30:00,
2013-05-15 22:31:00,73.3,69.2,29.84,SSE,155,0.0,6.0,87,0.00,,,0.25,WeatherCatV1.15B25,2013-05-16 03:31:00,
2013-05-15 22:35:00,73.4,69.3,29.85,SE,125,2.0,7.0,87,0.00,,,0.00,WeatherCatV1.24B11,2013-05-16 03:35:00,
2013-05-15 22:36:00,73.4,69.3,29.84,ESE,107,0.0,8.0,87,0.00,,,0.25,WeatherCatV1.15B25,2013-05-16 03:36:00,
2013-05-15 22:40:00,73.4,69.3,29.85,SE,130,2.0,8.0,87,0.00,,,0.00,WeatherCatV1.24B11,2013-05-16 03:40:00,
2013-05-15 22:41:00,73.4,69.3,29.84,SSE,148,3.0,7.0,87,0.00,,,0.25,WeatherCatV1.15B25,2013-05-16 03:41:00,
2013-05-15 22:45:00,73.3,69.2,29.85,ESE,121,3.0,12.0,87,0.00,,,0.00,WeatherCatV1.24B11,2013-05-16 03:45:00,
2013-05-15 22:46:00,73.4,68.9,29.85,ESE,109,0.0,4.0,86,0.00,,,0.25,WeatherCatV1.15B25,2013-05-16 03:46:00,
2013-05-15 22:50:00,73.3,69.2,29.85,ESE,120,3.0,5.0,87,0.00,,,0.00,WeatherCatV1.24B11,2013-05-16 03:50:00,
2013-05-15 22:51:00,73.4,69.3,29.85,SE,132,2.0,4.0,87,0.00,,,0.25,WeatherCatV1.15B25,2013-05-16 03:51:00,
2013-05-15 22:55:00,73.3,69.2,29.85,ESE,110,2.0,6.0,87,0.00,,,0.00,WeatherCatV1.24B11,2013-05-16 03:55:00,
2013-05-15 22:56:00,73.3,69.2,29.85,ESE,113,0.0,12.0,87,0.00,,,0.25,WeatherCatV1.15B25,2013-05-16 03:56:00,
2013-05-15 23:00:00,73.3,69.2,29.85,ESE,105,2.0,5.0,87,0.00,,,0.00,WeatherCatV1.24B11,2013-05-16 04:00:00,
2013-05-15 23:01:00,73.3,69.2,29.85,ESE,103,3.0,10.0,87,0.00,,,0.25,WeatherCatV1.15B25,2013-05-16 04:01:00,
2013-05-15 23:05:00,73.3,69.2,29.85,ESE,122,3.0,10.0,87,0.00,,,0.00,WeatherCatV1.24B11,2013-05-16 04:05:00,
2013-05-15 23:06:00,73.3,69.2,29.85,East,92,0.0,1.0,87,0.00,,,0.25,WeatherCatV1.15B25,2013-05-16 04:06:00,
2013-05-15 23:10:00,73.3,69.2,29.85,SE,137,2.0,7.0,87,0.00,,,0.00,WeatherCatV1.24B11,2013-05-16 04:10:00,
2013-05-15 23:11:00,73.3,69.2,29.85,East,92,7.0,9.0,87,0.00,,,0.25,WeatherCatV1.15B25,2013-05-16 04:11:00,
2013-05-15 23:15:00,73.3,69.2,29.84,SE,141,2.0,11.0,87,0.00,,,0.00,WeatherCatV1.24B11,2013-05-16 04:15:00,
2013-05-15 23:16:00,73.3,69.2,29.85,SE,140,0.0,4.0,87,0.00,,,0.25,WeatherCatV1.15B25,2013-05-16 04:16:00,
2013-05-15 23:20:00,73.3,69.2,29.85,SE,132,2.0,7.0,87,0.00,,,0.00,WeatherCatV1.24B11,2013-05-16 04:20:00,
2013-05-15 23:21:00,73.3,69.2,29.85,SSE,150,0.0,8.0,87,0.00,,,0.25,WeatherCatV1.15B25,2013-05-16 04:21:00,
2013-05-15 23:25:00,73.3,69.2,29.85,ESE,119,2.0,7.0,87,0.00,,,0.00,WeatherCatV1.24B11,2013-05-16 04:25:00,
2013-05-15 23:26:00,73.3,69.2,29.85,SSE,153,2.0,11.0,87,0.00,,,0.25,WeatherCatV1.15B25,2013-05-16 04:26:00,
2013-05-15 23:30:00,73.3,68.8,29.85,ESE,120,2.0,7.0,86,0.00,,,0.00,WeatherCatV1.24B11,2013-05-16 04:30:00,
2013-05-15 23:31:00,73.3,69.2,29.85,SE,134,0.0,5.0,87,0.00,,,0.25,WeatherCatV1.15B25,2013-05-16 04:31:00,
2013-05-15 23:35:00,73.4,68.9,29.85,SE,131,2.0,6.0,86,0.00,,,0.00,WeatherCatV1.24B11,2013-05-16 04:35:00,
2013-05-15 23:36:00,73.3,69.2,29.85,East,99,0.0,7.0,87,0.00,,,0.25,WeatherCatV1.15B25,2013-05-16 04:36:00,
2013-05-15 23:40:00,73.4,68.9,29.84,SE,142,2.0,3.0,86,0.00,,,0.00,WeatherCatV1.24B11,2013-05-16 04:40:00,
2013-05-15 23:41:00,73.3,68.8,29.85,East,96,2.0,8.0,86,0.00,,,0.25,WeatherCatV1.15B25,2013-05-16 04:41:00,
2013-05-15 23:45:00,73.3,68.8,29.84,SE,136,2.0,2.0,86,0.00,,,0.00,WeatherCatV1.24B11,2013-05-16 04:45:00,
2013-05-15 23:46:00,73.4,68.9,29.85,South,179,4.0,8.0,86,0.00,,,0.25,WeatherCatV1.15B25,2013-05-16 04:46:00,
2013-05-15 23:50:00,73.3,68.8,29.84,SE,133,2.0,3.0,86,0.00,,,0.00,WeatherCatV1.24B11,2013-05-16 04:50:00,
2013-05-15 23:51:00,73.4,68.9,29.85,SE,136,0.0,9.0,86,0.00,,,0.25,WeatherCatV1.15B25,2013-05-16 04:51:00,
2013-05-15 23:55:00,73.3,68.8,29.83,ESE,118,2.0,7.0,86,0.00,,,0.00,WeatherCatV1.24B11,2013-05-16 04:55:00,
2013-05-15 23:56:00,73.3,68.8,29.84,East,86,6.0,6.0,86,0.00,,,0.25,WeatherCatV1.15B25,2013-05-16 04:56:00,